Time;durP1;ratioP1;P1;durP2;ratioP2;P2;SDS_P1;SDS_P2;PMS_P1;PMS_P2;Temp;Humidity;BMP_temperature;BMP_pressure;BME280_temperature;BME280_humidity;BME280_pressure;Samples;Min_cycle;Max_cycle;Signal;HPM_P1;HPM_P2
2022/09/15 00:02:16;;;;;;;13.13;3.85;;;;;;;;;;5078663;28;20024;-64
2022/09/15 00:04:42;;;;;;;9.13;3.78;;;;;;;;;;5074278;28;20020;-62
2022/09/15 00:07:08;;;;;;;4.60;3.08;;;;;;;;;;5070473;28;20028;-61
2022/09/15 00:09:34;;;;;;;7.93;3.30;;;;;;;;;;5071924;28;20463;-61
2022/09/15 00:12:00;;;;;;;7.45;3.20;;;;;;;;;;5071966;28;20078;-61
2022/09/15 00:14:26;;;;;;;7.82;3.60;;;;;;;;;;5079906;28;20036;-61
2022/09/15 00:16:52;;;;;;;7.97;3.45;;;;;;;;;;5092214;28;20496;-61
2022/09/15 00:19:17;;;;;;;9.45;3.95;;;;;;;;;;5091675;28;20081;-61
2022/09/15 00:21:43;;;;;;;10.38;4.22;;;;;;;;;;5092203;28;20044;-61
2022/09/15 00:24:09;;;;;;;9.85;4.22;;;;;;;;;;5092023;28;20028;-61
2022/09/15 00:26:35;;;;;;;8.57;4.10;;;;;;;;;;5092470;28;20036;-61
2022/09/15 00:29:02;;;;;;;11.48;4.70;;;;;;;;;;5090727;28;20028;-61
2022/09/15 00:31:30;;;;;;;8.90;4.35;;;;;;;;;;5090013;28;20031;-66
2022/09/15 00:34:01;;;;;;;10.95;4.60;;;;;;;;;;5079433;28;20043;-61
2022/09/15 00:36:27;;;;;;;8.32;3.75;;;;;;;;;;5091646;28;20047;-62
2022/09/15 00:38:53;;;;;;;10.40;4.00;;;;;;;;;;5091904;28;20024;-61
2022/09/15 00:41:21;;;;;;;6.45;3.80;;;;;;;;;;5090890;28;20035;-61
2022/09/15 00:43:55;;;;;;;8.07;4.32;;;;;;;;;;5092070;28;20142;-62
2022/09/15 00:46:24;;;;;;;9.25;4.30;;;;;;;;;;5091675;28;20032;-62
2022/09/15 00:49:02;;;;;;;5.82;3.75;;;;;;;;;;5091794;28;20490;-61
2022/09/15 00:51:46;;;;;;;6.65;3.67;;;;;;;;;;5092013;28;20032;-61
2022/09/15 00:55:04;;;;;;;7.53;3.83;;;;;;;;;;5085498;28;20032;-62
2022/09/15 00:58:11;;;;;;;11.82;3.90;;;;;;;;;;5074342;28;20038;-62
2022/09/15 01:00:50;;;;;;;6.25;3.70;;;;;;;;;;5091808;28;20039;-62
2022/09/15 01:03:16;;;;;;;7.40;3.42;;;;;;;;;;5091735;28;20071;-62
2022/09/15 01:05:49;;;;;;;6.25;3.53;;;;;;;;;;5092015;28;20027;-62
2022/09/15 01:08:23;;;;;;;6.53;3.38;;;;;;;;;;5092062;28;20024;-62
2022/09/15 01:10:50;;;;;;;5.85;3.00;;;;;;;;;;5091786;28;20028;-61
2022/09/15 01:13:17;;;;;;;5.90;3.40;;;;;;;;;;5091679;28;20478;-61
2022/09/15 01:15:54;;;;;;;5.35;3.40;;;;;;;;;;5085504;28;20038;-61
2022/09/15 01:18:48;;;;;;;6.30;3.25;;;;;;;;;;5090271;28;20024;-61
2022/09/15 01:21:23;;;;;;;;;;;;;;;;;;5095624;28;20172;-62
2022/09/15 01:24:20;;;;;;;9.50;3.50;;;;;;;;;;5095184;28;19916;-62
2022/09/15 01:27:01;;;;;;;4.18;3.00;;;;;;;;;;5094637;28;20032;-62
2022/09/15 01:29:45;;;;;;;7.28;3.65;;;;;;;;;;5095352;28;20425;-62
2022/09/15 01:35:31;;;;;;;11.38;3.90;;;;;;;;;;5064158;28;20052;-62
2022/09/15 01:38:36;;;;;;;5.47;3.28;;;;;;;;;;5095260;28;20093;-61
2022/09/15 01:41:41;;;;;;;8.35;3.40;;;;;;;;;;5095356;28;20544;-63
2022/09/15 01:44:14;;;;;;;7.50;3.50;;;;;;;;;;5095103;28;20028;-61
2022/09/15 01:46:45;;;;;;;5.55;3.78;;;;;;;;;;5095051;28;20062;-61
2022/09/15 01:49:16;;;;;;;10.02;3.90;;;;;;;;;;5095169;28;20032;-62
2022/09/15 01:51:44;;;;;;;6.80;3.65;;;;;;;;;;5095188;28;20063;-62
2022/09/15 01:54:11;;;;;;;7.88;3.58;;;;;;;;;;5095169;28;20097;-62
2022/09/15 01:56:38;;;;;;;8.02;4.00;;;;;;;;;;5095280;28;20063;-63
2022/09/15 01:59:04;;;;;;;7.80;3.88;;;;;;;;;;5095093;28;20055;-63
2022/09/15 02:01:39;;;;;;;12.00;3.88;;;;;;;;;;5094671;28;20024;-63
2022/09/15 02:04:31;;;;;;;7.65;4.00;;;;;;;;;;5095016;28;20039;-62
2022/09/15 02:07:20;;;;;;;10.48;4.35;;;;;;;;;;5080868;28;20048;-64
2022/09/15 02:09:59;;;;;;;10.63;4.45;;;;;;;;;;5094885;28;20038;-63
2022/09/15 02:12:34;;;;;;;10.52;4.75;;;;;;;;;;5094595;28;20419;-62
2022/09/15 02:15:08;;;;;;;10.88;4.88;;;;;;;;;;5094429;28;20036;-63
2022/09/15 02:17:41;;;;;;;13.50;4.93;;;;;;;;;;5094260;28;20164;-63
2022/09/15 02:20:14;;;;;;;17.80;5.63;;;;;;;;;;5094331;28;20047;-62
2022/09/15 02:22:44;;;;;;;14.40;5.30;;;;;;;;;;5094625;28;20592;-63
2022/09/15 02:25:19;;;;;;;14.20;5.43;;;;;;;;;;5094502;28;20028;-62
2022/09/15 02:27:52;;;;;;;18.25;8.50;;;;;;;;;;5094367;28;20097;-62
2022/09/15 02:30:19;;;;;;;11.82;6.05;;;;;;;;;;5094171;28;20086;-62
2022/09/15 02:32:55;;;;;;;11.85;5.57;;;;;;;;;;5094274;28;20059;-62
2022/09/15 02:35:24;;;;;;;13.05;4.88;;;;;;;;;;5094358;28;20039;-62
2022/09/15 02:37:51;;;;;;;10.40;5.22;;;;;;;;;;5094170;28;20483;-63
2022/09/15 02:40:18;;;;;;;23.38;6.18;;;;;;;;;;5093921;28;20079;-62
2022/09/15 02:43:00;;;;;;;13.30;5.18;;;;;;;;;;5094134;28;20467;-62
2022/09/15 02:45:28;;;;;;;11.95;5.88;;;;;;;;;;5093845;28;20484;-62
2022/09/15 02:47:55;;;;;;;11.50;5.80;;;;;;;;;;5094039;28;20055;-63
2022/09/15 02:50:21;;;;;;;15.45;6.45;;;;;;;;;;5094217;28;20096;-62
2022/09/15 02:52:47;;;;;;;12.43;5.82;;;;;;;;;;5093873;28;20028;-62
2022/09/15 02:55:14;;;;;;;11.43;6.10;;;;;;;;;;5093431;28;20028;-62
2022/09/15 02:57:40;;;;;;;26.10;6.78;;;;;;;;;;5093672;28;20024;-62
2022/09/15 03:00:13;;;;;;;17.90;6.95;;;;;;;;;;5093301;28;20493;-62
2022/09/15 03:02:50;;;;;;;11.90;6.05;;;;;;;;;;5094919;28;20478;-62
2022/09/15 03:05:25;;;;;;;11.65;5.32;;;;;;;;;;5094508;28;20036;-62
2022/09/15 03:07:51;;;;;;;7.90;4.95;;;;;;;;;;5094137;28;20040;-62
2022/09/15 03:10:17;;;;;;;12.50;5.03;;;;;;;;;;5094152;28;20494;-61
2022/09/15 03:12:48;;;;;;;11.30;5.57;;;;;;;;;;5093803;28;20043;-61
2022/09/15 03:15:17;;;;;;;15.80;6.40;;;;;;;;;;5093901;28;20061;-61
2022/09/15 03:17:45;;;;;;;14.38;7.60;;;;;;;;;;5094414;28;20085;-61
2022/09/15 03:20:15;;;;;;;13.43;6.78;;;;;;;;;;5094115;28;20036;-63
2022/09/15 03:22:41;;;;;;;21.92;7.88;;;;;;;;;;5093730;28;20089;-63
2022/09/15 03:25:08;;;;;;;18.50;5.90;;;;;;;;;;5093699;28;20148;-62
2022/09/15 03:27:34;;;;;;;9.70;5.70;;;;;;;;;;5093868;28;20047;-62
2022/09/15 03:30:00;;;;;;;13.27;6.00;;;;;;;;;;5093765;28;20398;-61
2022/09/15 03:32:26;;;;;;;13.98;6.63;;;;;;;;;;5086826;28;20040;-61
2022/09/15 03:34:52;;;;;;;12.63;5.55;;;;;;;;;;5083395;28;20038;-63
2022/09/15 03:37:18;;;;;;;12.10;5.43;;;;;;;;;;5076500;28;20067;-62
2022/09/15 03:39:44;;;;;;;14.55;6.45;;;;;;;;;;5073554;28;20044;-62
2022/09/15 03:42:10;;;;;;;17.85;6.97;;;;;;;;;;5073145;28;20033;-62
2022/09/15 03:44:36;;;;;;;15.35;7.43;;;;;;;;;;5073604;28;20501;-62
2022/09/15 03:47:02;;;;;;;18.80;6.32;;;;;;;;;;5073575;28;20581;-62
2022/09/15 03:49:28;;;;;;;15.07;6.57;;;;;;;;;;5073293;28;20024;-61
2022/09/15 03:51:55;;;;;;;23.35;6.60;;;;;;;;;;5071692;28;20039;-61
2022/09/15 03:54:21;;;;;;;13.48;6.07;;;;;;;;;;5073098;28;20028;-62
2022/09/15 03:56:47;;;;;;;22.20;7.85;;;;;;;;;;5073030;28;20040;-62
2022/09/15 03:59:14;;;;;;;22.80;7.80;;;;;;;;;;5071793;28;20025;-62
2022/09/15 04:01:41;;;;;;;8.88;5.53;;;;;;;;;;5071539;28;20041;-66
2022/09/15 04:04:07;;;;;;;15.38;6.10;;;;;;;;;;5072631;28;20044;-61
2022/09/15 04:06:33;;;;;;;10.65;6.18;;;;;;;;;;5079497;28;20398;-61
2022/09/15 04:08:59;;;;;;;14.82;5.93;;;;;;;;;;5076866;28;20027;-61
2022/09/15 04:11:25;;;;;;;13.18;5.60;;;;;;;;;;5073098;28;20033;-61
2022/09/15 04:13:52;;;;;;;14.07;6.05;;;;;;;;;;5072840;28;20098;-62
2022/09/15 04:16:21;;;;;;;11.40;5.20;;;;;;;;;;5075533;28;20033;-61
2022/09/15 04:18:49;;;;;;;10.07;5.03;;;;;;;;;;5072850;28;20025;-61
2022/09/15 04:21:17;;;;;;;9.77;4.78;;;;;;;;;;5072924;28;20028;-62
2022/09/15 04:23:44;;;;;;;7.30;5.10;;;;;;;;;;5077956;28;20309;-63
2022/09/15 04:26:17;;;;;;;22.23;6.60;;;;;;;;;;5090008;28;20032;-62
2022/09/15 04:28:43;;;;;;;12.90;4.60;;;;;;;;;;5093015;28;20486;-63
2022/09/15 04:31:12;;;;;;;10.40;5.20;;;;;;;;;;5092722;28;20118;-62
2022/09/15 04:33:39;;;;;;;15.18;5.45;;;;;;;;;;5083712;28;20040;-63
2022/09/15 04:36:11;;;;;;;20.40;5.68;;;;;;;;;;5071253;28;20028;-63
2022/09/15 04:38:37;;;;;;;10.67;4.70;;;;;;;;;;5072609;28;20483;-63
2022/09/15 04:41:04;;;;;;;11.45;5.70;;;;;;;;;;5070996;28;20032;-63
2022/09/15 04:43:31;;;;;;;13.00;4.90;;;;;;;;;;5071557;28;20039;-63
2022/09/15 04:45:58;;;;;;;15.55;5.72;;;;;;;;;;5072382;28;20112;-63
2022/09/15 04:48:24;;;;;;;19.77;5.68;;;;;;;;;;5072462;28;20434;-63
2022/09/15 04:50:51;;;;;;;16.83;6.10;;;;;;;;;;5072302;28;20024;-63
2022/09/15 04:53:17;;;;;;;13.65;4.90;;;;;;;;;;5081899;28;20486;-63
2022/09/15 04:55:42;;;;;;;14.25;6.10;;;;;;;;;;5088056;28;20067;-62
2022/09/15 04:58:08;;;;;;;18.98;6.13;;;;;;;;;;5076362;28;20025;-62
2022/09/15 05:00:42;;;;;;;12.68;5.88;;;;;;;;;;5076117;28;20078;-67
2022/09/15 05:03:12;;;;;;;10.05;5.32;;;;;;;;;;5075898;28;20037;-63
2022/09/15 05:05:39;;;;;;;13.25;5.15;;;;;;;;;;5082978;28;20119;-63
2022/09/15 05:08:06;;;;;;;8.38;4.82;;;;;;;;;;5093295;28;20424;-62
2022/09/15 05:10:33;;;;;;;16.48;5.57;;;;;;;;;;5081025;28;20491;-63
2022/09/15 05:12:59;;;;;;;11.85;5.15;;;;;;;;;;5075950;28;20107;-62
2022/09/15 05:15:25;;;;;;;18.80;5.18;;;;;;;;;;5075739;28;20111;-62
2022/09/15 05:17:51;;;;;;;12.10;5.45;;;;;;;;;;5075700;28;20030;-65
2022/09/15 05:20:17;;;;;;;12.77;4.63;;;;;;;;;;5075752;28;20040;-62
2022/09/15 05:22:43;;;;;;;15.73;8.00;;;;;;;;;;5075544;28;20493;-63
2022/09/15 05:25:09;;;;;;;12.40;5.18;;;;;;;;;;5075741;28;20478;-68
2022/09/15 05:27:38;;;;;;;17.20;5.30;;;;;;;;;;5075326;28;20017;-63
2022/09/15 05:30:05;;;;;;;16.70;5.38;;;;;;;;;;5081481;28;20031;-62
2022/09/15 05:32:31;;;;;;;21.65;7.13;;;;;;;;;;5095543;28;20489;-62
2022/09/15 05:34:57;;;;;;;20.52;6.15;;;;;;;;;;5095967;28;20061;-65
2022/09/15 05:37:23;;;;;;;16.92;6.47;;;;;;;;;;5096060;28;20099;-62
2022/09/15 05:39:49;;;;;;;19.33;6.18;;;;;;;;;;5095847;28;20036;-63
2022/09/15 05:42:15;;;;;;;20.15;6.78;;;;;;;;;;5095523;28;20451;-63
2022/09/15 05:44:40;;;;;;;18.25;6.78;;;;;;;;;;5095476;28;20107;-62
2022/09/15 05:47:06;;;;;;;18.20;5.72;;;;;;;;;;5095509;28;20038;-62
2022/09/15 05:49:32;;;;;;;19.10;6.97;;;;;;;;;;5095247;28;20034;-62
2022/09/15 05:51:59;;;;;;;15.27;6.15;;;;;;;;;;5078099;28;20467;-62
2022/09/15 05:54:26;;;;;;;20.27;6.13;;;;;;;;;;5083673;28;20032;-62
2022/09/15 05:56:52;;;;;;;14.05;4.90;;;;;;;;;;5085571;28;20019;-62
2022/09/15 05:59:17;;;;;;;18.67;6.03;;;;;;;;;;5085270;28;20032;-62
2022/09/15 06:01:43;;;;;;;21.25;5.65;;;;;;;;;;5083581;28;20048;-63
2022/09/15 06:04:09;;;;;;;21.80;6.70;;;;;;;;;;5085920;28;20420;-63
2022/09/15 06:06:35;;;;;;;24.63;6.97;;;;;;;;;;5086186;28;20020;-62
2022/09/15 06:09:04;;;;;;;15.75;5.70;;;;;;;;;;5084509;28;20036;-63
2022/09/15 06:11:32;;;;;;;14.93;6.97;;;;;;;;;;5084302;28;20047;-67
2022/09/15 06:14:02;;;;;;;12.02;5.22;;;;;;;;;;5084569;28;20039;-68
2022/09/15 06:16:31;;;;;;;10.82;5.15;;;;;;;;;;5085737;28;20522;-70
2022/09/15 06:19:13;;;;;;;14.75;4.57;;;;;;;;;;5090631;28;20084;-69
2022/09/15 06:22:17;;;;;;;9.13;4.60;;;;;;;;;;5090592;28;20055;-68
2022/09/15 06:24:43;;;;;;;8.50;4.40;;;;;;;;;;5079155;28;20036;-67
2022/09/15 06:27:09;;;;;;;8.73;4.18;;;;;;;;;;5092329;28;20383;-67
2022/09/15 06:29:35;;;;;;;8.77;4.03;;;;;;;;;;5092124;28;20486;-67
2022/09/15 06:32:01;;;;;;;6.60;4.22;;;;;;;;;;5092054;28;20042;-70
2022/09/15 06:34:28;;;;;;;13.48;4.80;;;;;;;;;;5092787;28;20032;-72
2022/09/15 06:36:54;;;;;;;10.32;4.07;;;;;;;;;;5091949;28;20059;-66
2022/09/15 06:39:20;;;;;;;7.90;4.25;;;;;;;;;;5092288;28;20052;-68
2022/09/15 06:41:46;;;;;;;9.98;4.45;;;;;;;;;;5092274;28;20047;-70
2022/09/15 06:44:20;;;;;;;7.03;4.10;;;;;;;;;;5092192;28;20085;-68
2022/09/15 06:46:46;;;;;;;10.15;4.10;;;;;;;;;;5091991;28;20118;-68
2022/09/15 06:49:11;;;;;;;7.32;4.13;;;;;;;;;;5092009;28;20105;-70
2022/09/15 06:51:37;;;;;;;8.70;4.88;;;;;;;;;;5091936;28;20078;-71
2022/09/15 06:54:04;;;;;;;7.43;3.72;;;;;;;;;;5094047;28;20042;-68
2022/09/15 06:56:31;;;;;;;8.00;3.90;;;;;;;;;;5092584;28;20120;-69
2022/09/15 06:58:58;;;;;;;8.57;4.07;;;;;;;;;;5092324;28;20060;-70
2022/09/15 07:01:27;;;;;;;5.05;3.55;;;;;;;;;;5093699;28;20060;-68
2022/09/15 07:03:53;;;;;;;8.00;4.13;;;;;;;;;;5093474;28;20474;-66
2022/09/15 07:06:20;;;;;;;10.40;4.15;;;;;;;;;;5094104;28;20073;-73
2022/09/15 07:08:46;;;;;;;17.60;4.18;;;;;;;;;;5092982;28;20463;-68
2022/09/15 07:11:13;;;;;;;14.23;4.82;;;;;;;;;;5093808;28;20035;-68
2022/09/15 07:13:39;;;;;;;9.05;4.18;;;;;;;;;;5093760;28;20069;-67
2022/09/15 07:16:07;;;;;;;8.55;3.97;;;;;;;;;;5092064;28;20548;-66
2022/09/15 07:18:34;;;;;;;7.88;4.10;;;;;;;;;;5089812;28;20015;-64
2022/09/15 07:21:02;;;;;;;8.77;4.05;;;;;;;;;;5093053;28;20119;-67
2022/09/15 07:23:28;;;;;;;13.45;4.28;;;;;;;;;;5090547;28;20023;-67
2022/09/15 07:26:11;;;;;;;13.73;3.78;;;;;;;;;;5093424;28;20036;-72
2022/09/15 07:28:39;;;;;;;11.30;3.45;;;;;;;;;;5070417;28;20133;-74
2022/09/15 07:31:06;;;;;;;12.10;3.95;;;;;;;;;;5062045;28;20028;-77
2022/09/15 07:33:34;;;;;;;11.07;3.80;;;;;;;;;;5047020;28;20115;-70
2022/09/15 07:36:05;;;;;;;11.18;3.95;;;;;;;;;;5040197;28;20107;-74
2022/09/15 07:38:32;;;;;;;11.00;3.53;;;;;;;;;;5042644;28;20041;-69
2022/09/15 07:41:05;;;;;;;10.85;3.65;;;;;;;;;;5049118;28;20029;-67
2022/09/15 07:43:31;;;;;;;13.38;3.50;;;;;;;;;;5041436;28;20434;-71
2022/09/15 07:45:58;;;;;;;7.90;3.40;;;;;;;;;;5043009;28;20021;-70
2022/09/15 07:48:24;;;;;;;4.80;3.30;;;;;;;;;;5038746;28;20061;-74
2022/09/15 07:50:49;;;;;;;7.28;3.42;;;;;;;;;;5041741;28;20044;-74
2022/09/15 07:53:15;;;;;;;17.60;4.30;;;;;;;;;;5043393;28;20029;-69
2022/09/15 07:55:41;;;;;;;11.15;3.60;;;;;;;;;;5041330;28;20071;-73
2022/09/15 07:58:07;;;;;;;9.38;3.97;;;;;;;;;;5042267;28;20028;-75
2022/09/15 08:00:33;;;;;;;9.80;4.43;;;;;;;;;;5042417;28;20022;-69
2022/09/15 08:02:59;;;;;;;14.93;4.80;;;;;;;;;;5040935;28;20084;-67
2022/09/15 08:05:27;;;;;;;11.82;4.32;;;;;;;;;;5041833;28;20490;-75
2022/09/15 08:07:56;;;;;;;9.80;4.50;;;;;;;;;;5043144;28;20038;-71
2022/09/15 08:10:24;;;;;;;20.95;4.53;;;;;;;;;;5042851;28;20147;-73
2022/09/15 08:12:53;;;;;;;8.85;4.65;;;;;;;;;;5041779;28;20460;-66
2022/09/15 08:15:19;;;;;;;9.90;4.15;;;;;;;;;;5039825;28;20388;-73
2022/09/15 08:17:45;;;;;;;8.30;3.90;;;;;;;;;;5049824;28;20483;-71
2022/09/15 08:20:11;;;;;;;10.38;3.92;;;;;;;;;;5040463;28;20025;-71
2022/09/15 08:22:38;;;;;;;7.78;4.15;;;;;;;;;;5042046;28;20032;-74
2022/09/15 08:25:05;;;;;;;8.00;3.90;;;;;;;;;;5041905;28;20514;-69
2022/09/15 08:27:31;;;;;;;10.68;4.72;;;;;;;;;;5039337;28;20035;-74
2022/09/15 08:29:57;;;;;;;11.07;3.92;;;;;;;;;;5040957;28;20025;-72
2022/09/15 08:32:23;;;;;;;10.20;3.67;;;;;;;;;;5041041;28;20507;-70
2022/09/15 08:34:49;;;;;;;5.18;2.90;;;;;;;;;;5042682;28;20064;-74
2022/09/15 08:37:15;;;;;;;5.82;2.80;;;;;;;;;;5040716;28;20022;-73
2022/09/15 08:39:41;;;;;;;7.10;2.63;;;;;;;;;;5039096;28;20537;-71
2022/09/15 08:42:16;;;;;;;4.43;2.97;;;;;;;;;;5042839;28;20033;-71
2022/09/15 08:44:45;;;;;;;4.93;2.58;;;;;;;;;;5042622;28;20061;-72
2022/09/15 08:47:24;;;;;;;6.57;3.10;;;;;;;;;;5040586;28;20025;-72
2022/09/15 08:50:11;;;;;;;6.97;3.05;;;;;;;;;;5042228;28;20029;-67
2022/09/15 08:52:44;;;;;;;8.45;3.35;;;;;;;;;;5046586;28;20045;-72
2022/09/15 08:55:20;;;;;;;10.48;3.85;;;;;;;;;;5043673;28;20036;-67
2022/09/15 08:57:45;;;;;;;7.28;4.15;;;;;;;;;;5040477;28;20025;-68
2022/09/15 09:00:15;;;;;;;8.98;2.90;;;;;;;;;;5041574;28;20108;-71
2022/09/15 09:03:15;;;;;;;9.65;3.17;;;;;;;;;;5037250;28;20115;-66
2022/09/15 09:06:11;;;;;;;8.32;3.47;;;;;;;;;;5059760;28;20034;-69
2022/09/15 09:08:55;;;;;;;10.38;3.60;;;;;;;;;;5042896;28;20040;-69
2022/09/15 09:12:04;;;;;;;5.18;2.55;;;;;;;;;;5041900;28;20038;-71
2022/09/15 09:14:41;;;;;;;8.50;3.03;;;;;;;;;;5042722;28;20116;-68
2022/09/15 09:17:47;;;;;;;4.55;2.88;;;;;;;;;;5043451;28;20037;-73
2022/09/15 09:20:34;;;;;;;6.60;2.80;;;;;;;;;;5043190;28;20095;-67
2022/09/15 09:23:02;;;;;;;8.13;2.72;;;;;;;;;;5043084;28;20387;-73
2022/09/15 09:25:28;;;;;;;5.63;2.75;;;;;;;;;;5038658;28;20056;-74
2022/09/15 09:27:57;;;;;;;9.55;3.25;;;;;;;;;;5031232;28;20034;-71
2022/09/15 09:30:26;;;;;;;9.93;3.45;;;;;;;;;;5040951;28;20028;-73
2022/09/15 09:33:29;;;;;;;9.27;3.60;;;;;;;;;;5051282;28;20045;-69
2022/09/15 09:35:58;;;;;;;5.00;2.60;;;;;;;;;;5051161;28;20125;-66
2022/09/15 09:38:26;;;;;;;8.50;3.05;;;;;;;;;;5051494;28;20270;-69
2022/09/15 09:40:52;;;;;;;5.40;2.63;;;;;;;;;;5037579;28;20510;-69
2022/09/15 09:43:18;;;;;;;10.13;2.92;;;;;;;;;;5054305;28;20037;-66
2022/09/15 09:45:44;;;;;;;6.35;2.80;;;;;;;;;;5054631;28;20040;-67
2022/09/15 09:48:22;;;;;;;11.23;2.70;;;;;;;;;;5054997;28;20029;-66
2022/09/15 09:50:49;;;;;;;5.90;2.45;;;;;;;;;;5054788;28;20053;-66
2022/09/15 09:53:22;;;;;;;6.72;2.60;;;;;;;;;;5054661;28;20057;-65
2022/09/15 09:55:48;;;;;;;8.88;3.00;;;;;;;;;;5053428;28;20142;-67
2022/09/15 09:58:19;;;;;;;8.05;3.00;;;;;;;;;;5053539;28;20096;-67
2022/09/15 10:00:46;;;;;;;4.55;2.60;;;;;;;;;;5054678;28;20032;-66
2022/09/15 10:03:14;;;;;;;4.57;3.08;;;;;;;;;;5052751;28;20491;-66
2022/09/15 10:05:41;;;;;;;7.60;2.47;;;;;;;;;;5053674;28;20033;-65
2022/09/15 10:08:19;;;;;;;6.70;3.58;;;;;;;;;;5049711;28;20040;-71
2022/09/15 10:10:53;;;;;;;6.10;2.65;;;;;;;;;;5034465;28;20038;-66
2022/09/15 10:13:20;;;;;;;8.55;2.47;;;;;;;;;;5034005;28;20044;-72
2022/09/15 10:15:58;;;;;;;8.00;2.88;;;;;;;;;;5034460;28;20492;-68
2022/09/15 10:18:31;;;;;;;7.88;2.58;;;;;;;;;;5034773;28;20037;-66
2022/09/15 10:20:58;;;;;;;3.78;2.38;;;;;;;;;;5042673;28;20029;-66
2022/09/15 10:23:33;;;;;;;4.63;2.30;;;;;;;;;;5052867;28;20021;-66
2022/09/15 10:26:30;;;;;;;5.18;2.45;;;;;;;;;;5054163;28;20368;-66
2022/09/15 10:29:17;;;;;;;6.05;2.65;;;;;;;;;;5054395;28;20668;-69
2022/09/15 10:31:44;;;;;;;3.35;2.35;;;;;;;;;;5052722;28;20550;-67
2022/09/15 10:34:30;;;;;;;8.82;2.50;;;;;;;;;;5051506;28;20052;-65
2022/09/15 10:37:25;;;;;;;6.50;2.70;;;;;;;;;;5055078;28;20033;-66
2022/09/15 10:39:53;;;;;;;3.70;2.40;;;;;;;;;;5055161;28;20515;-67
2022/09/15 10:42:37;;;;;;;5.38;2.35;;;;;;;;;;5054461;28;20025;-65
2022/09/15 10:45:24;;;;;;;6.13;2.28;;;;;;;;;;5054489;28;20087;-65
2022/09/15 10:48:14;;;;;;;5.32;2.22;;;;;;;;;;5054520;28;20029;-65
2022/09/15 10:50:49;;;;;;;7.40;2.80;;;;;;;;;;5053664;28;20078;-65
2022/09/15 10:53:27;;;;;;;5.82;2.40;;;;;;;;;;5047060;28;20112;-66
2022/09/15 10:56:02;;;;;;;6.22;2.40;;;;;;;;;;5052777;28;20047;-66
2022/09/15 10:58:34;;;;;;;5.20;2.30;;;;;;;;;;5054087;28;20428;-67
2022/09/15 11:01:22;;;;;;;6.07;2.33;;;;;;;;;;5052315;28;20100;-65
2022/09/15 11:04:17;;;;;;;6.60;2.45;;;;;;;;;;5053424;28;20106;-65
2022/09/15 11:07:08;;;;;;;5.35;2.40;;;;;;;;;;5032577;28;20042;-66
2022/09/15 11:09:55;;;;;;;6.43;2.10;;;;;;;;;;5033452;28;20036;-67
2022/09/15 11:12:58;;;;;;;5.85;2.30;;;;;;;;;;5033369;28;20037;-66
2022/09/15 11:15:37;;;;;;;5.57;2.90;;;;;;;;;;5033399;28;20045;-65
2022/09/15 11:18:48;;;;;;;7.70;2.30;;;;;;;;;;5041924;28;20071;-66
2022/09/15 11:21:49;;;;;;;7.97;2.67;;;;;;;;;;5052958;28;20045;-66
2022/09/15 11:24:41;;;;;;;8.77;2.90;;;;;;;;;;5046679;28;20102;-66
2022/09/15 11:27:22;;;;;;;6.10;2.33;;;;;;;;;;5025033;28;20492;-65
2022/09/15 11:30:08;;;;;;;5.70;2.72;;;;;;;;;;5035021;28;20112;-67
2022/09/15 11:32:51;;;;;;;7.18;2.30;;;;;;;;;;5051203;28;20180;-68
2022/09/15 11:35:31;;;;;;;9.68;2.60;;;;;;;;;;5053010;28;20060;-66
2022/09/15 11:38:41;;;;;;;7.93;2.35;;;;;;;;;;5052699;28;20108;-66
2022/09/15 11:41:19;;;;;;;6.50;2.42;;;;;;;;;;5046532;28;20053;-66
2022/09/15 11:43:57;;;;;;;5.82;2.70;;;;;;;;;;5052495;28;20028;-66
2022/09/15 11:46:46;;;;;;;4.13;2.13;;;;;;;;;;5053113;28;20051;-68
2022/09/15 11:49:26;;;;;;;7.40;2.05;;;;;;;;;;5051839;28;20037;-67
2022/09/15 11:52:00;;;;;;;6.75;2.67;;;;;;;;;;5048821;28;20170;-66
2022/09/15 11:54:37;;;;;;;4.00;2.08;;;;;;;;;;5051655;28;20033;-67
2022/09/15 11:57:04;;;;;;;4.35;2.10;;;;;;;;;;5051221;28;20037;-65
2022/09/15 12:00:09;;;;;;;6.53;2.30;;;;;;;;;;5052034;28;20033;-66
2022/09/15 12:02:52;;;;;;;8.38;2.40;;;;;;;;;;5050744;28;20419;-66
2022/09/15 12:05:30;;;;;;;3.50;1.92;;;;;;;;;;5051522;28;20034;-66
2022/09/15 12:08:17;;;;;;;3.42;1.85;;;;;;;;;;5051023;28;20036;-65
2022/09/15 12:10:48;;;;;;;6.63;1.80;;;;;;;;;;5051479;28;20033;-65
2022/09/15 12:13:20;;;;;;;4.65;2.38;;;;;;;;;;5050060;28;20503;-72
2022/09/15 12:15:47;;;;;;;2.85;1.92;;;;;;;;;;5051280;28;20025;-67
2022/09/15 12:18:55;;;;;;;3.72;1.80;;;;;;;;;;5051354;28;20029;-67
2022/09/15 12:21:32;;;;;;;7.32;1.85;;;;;;;;;;5050644;28;20139;-65
2022/09/15 12:24:13;;;;;;;4.85;2.20;;;;;;;;;;5051784;28;20078;-64
2022/09/15 12:26:42;;;;;;;9.10;2.13;;;;;;;;;;5051147;28;20036;-66
2022/09/15 12:29:25;;;;;;;3.67;1.70;;;;;;;;;;5051320;28;20036;-69
2022/09/15 12:32:16;;;;;;;3.85;1.52;;;;;;;;;;5045771;28;20037;-69
2022/09/15 12:35:15;;;;;;;5.43;1.95;;;;;;;;;;5043889;28;20055;-66
2022/09/15 12:37:44;;;;;;;6.75;2.00;;;;;;;;;;5050979;28;20051;-70
2022/09/15 12:40:28;;;;;;;5.07;1.67;;;;;;;;;;5050975;28;20025;-66
2022/09/15 12:42:55;;;;;;;6.30;1.70;;;;;;;;;;5052296;28;20029;-65
2022/09/15 12:45:28;;;;;;;2.13;1.45;;;;;;;;;;5050866;28;20475;-67
2022/09/15 12:48:04;;;;;;;4.80;1.77;;;;;;;;;;5051973;28;20041;-66
2022/09/15 12:50:39;;;;;;;4.88;1.90;;;;;;;;;;5052488;28;20083;-65
2022/09/15 12:53:11;;;;;;;8.27;2.63;;;;;;;;;;5052344;28;20075;-68
2022/09/15 12:55:56;;;;;;;4.67;2.17;;;;;;;;;;5052230;28;20460;-66
2022/09/15 12:58:38;;;;;;;5.63;1.95;;;;;;;;;;5051973;28;20745;-66
2022/09/15 13:01:24;;;;;;;2.97;1.58;;;;;;;;;;5052218;28;20061;-66
2022/09/15 13:03:52;;;;;;;4.80;1.60;;;;;;;;;;5052041;28;20037;-66
2022/09/15 13:06:33;;;;;;;8.48;4.20;;;;;;;;;;5050926;28;20025;-65
2022/09/15 13:09:05;;;;;;;6.45;1.80;;;;;;;;;;5052132;28;20480;-66
2022/09/15 13:11:35;;;;;;;4.60;1.67;;;;;;;;;;5051883;28;20052;-65
2022/09/15 13:14:09;;;;;;;3.30;1.67;;;;;;;;;;5050886;28;20091;-66
2022/09/15 13:16:50;;;;;;;5.38;1.70;;;;;;;;;;5055882;28;20067;-66
2022/09/15 13:19:34;;;;;;;8.75;3.33;;;;;;;;;;5055892;28;20025;-66
2022/09/15 13:22:15;;;;;;;3.80;2.20;;;;;;;;;;5056212;28;20029;-65
2022/09/15 13:24:56;;;;;;;3.83;1.58;;;;;;;;;;5051002;28;20075;-66
2022/09/15 13:27:39;;;;;;;4.55;1.80;;;;;;;;;;5035946;28;20040;-66
2022/09/15 13:30:39;;;;;;;4.72;1.60;;;;;;;;;;5035985;28;20120;-65
2022/09/15 13:33:26;;;;;;;4.00;1.50;;;;;;;;;;5035646;28;20045;-67
2022/09/15 13:36:03;;;;;;;5.38;1.58;;;;;;;;;;5036116;28;20044;-66
2022/09/15 13:38:57;;;;;;;4.88;1.50;;;;;;;;;;5050634;28;20036;-65
2022/09/15 13:41:40;;;;;;;4.68;1.70;;;;;;;;;;5055557;28;20040;-66
2022/09/15 13:44:24;;;;;;;;;;;;;;;;;;5055851;28;20432;-68
2022/09/15 13:47:15;;;;;;;6.60;1.80;;;;;;;;;;5055476;28;19916;-65
2022/09/15 13:49:56;;;;;;;4.13;1.95;;;;;;;;;;5054913;28;20029;-65
2022/09/15 13:52:37;;;;;;;9.57;1.80;;;;;;;;;;5053901;28;20399;-65
2022/09/15 13:55:15;;;;;;;3.20;1.40;;;;;;;;;;5054041;28;20480;-66
2022/09/15 13:57:46;;;;;;;3.13;1.60;;;;;;;;;;5055367;28;20029;-65
2022/09/15 14:00:18;;;;;;;4.93;1.70;;;;;;;;;;5054269;28;20415;-66
2022/09/15 14:02:46;;;;;;;7.78;1.95;;;;;;;;;;5033826;28;20124;-66
2022/09/15 14:05:14;;;;;;;7.40;1.80;;;;;;;;;;5035326;28;20101;-67
2022/09/15 14:07:40;;;;;;;2.85;1.77;;;;;;;;;;5035253;28;20121;-66
2022/09/15 14:10:17;;;;;;;7.93;2.10;;;;;;;;;;5033740;28;20026;-64
2022/09/15 14:12:43;;;;;;;8.25;1.63;;;;;;;;;;5034954;28;20045;-64
2022/09/15 14:15:17;;;;;;;3.75;1.80;;;;;;;;;;5039372;28;20021;-64
2022/09/15 14:17:44;;;;;;;8.00;2.10;;;;;;;;;;5055007;28;20443;-64
2022/09/15 14:20:22;;;;;;;6.47;1.95;;;;;;;;;;5054816;28;20597;-66
2022/09/15 14:22:49;;;;;;;9.43;2.22;;;;;;;;;;5054762;28;20033;-65
2022/09/15 14:25:16;;;;;;;9.52;2.13;;;;;;;;;;5054317;28;20079;-64
2022/09/15 14:27:45;;;;;;;3.80;1.90;;;;;;;;;;5054528;28;20032;-65
2022/09/15 14:30:26;;;;;;;10.93;2.33;;;;;;;;;;5054590;28;20032;-65
2022/09/15 14:32:57;;;;;;;3.63;1.80;;;;;;;;;;5052872;28;20052;-64
2022/09/15 14:35:26;;;;;;;4.07;1.95;;;;;;;;;;5054600;28;20033;-65
2022/09/15 14:37:56;;;;;;;6.65;2.00;;;;;;;;;;5054470;28;20025;-63
2022/09/15 14:40:27;;;;;;;3.53;1.75;;;;;;;;;;5054066;28;20033;-64
2022/09/15 14:42:54;;;;;;;5.35;2.10;;;;;;;;;;5054562;28;20500;-64
2022/09/15 14:45:23;;;;;;;6.10;2.10;;;;;;;;;;5053165;28;20029;-64
2022/09/15 14:47:58;;;;;;;4.05;1.90;;;;;;;;;;5054326;28;20043;-64
2022/09/15 14:50:25;;;;;;;3.17;1.80;;;;;;;;;;5054322;28;20043;-64
2022/09/15 14:52:53;;;;;;;6.00;1.83;;;;;;;;;;5053522;28;20151;-64
2022/09/15 14:55:29;;;;;;;7.05;2.28;;;;;;;;;;5054294;28;20044;-64
2022/09/15 14:58:20;;;;;;;4.32;2.00;;;;;;;;;;5054311;28;20037;-65
2022/09/15 15:00:59;;;;;;;4.95;2.20;;;;;;;;;;5053961;28;20033;-64
2022/09/15 15:03:47;;;;;;;6.32;2.08;;;;;;;;;;5053987;28;20032;-64
2022/09/15 15:06:18;;;;;;;3.75;2.30;;;;;;;;;;5053602;28;20029;-64
2022/09/15 15:08:59;;;;;;;4.13;2.20;;;;;;;;;;5053952;28;20037;-64
2022/09/15 15:11:26;;;;;;;5.00;2.20;;;;;;;;;;5052804;28;20492;-65
2022/09/15 15:13:52;;;;;;;4.43;2.15;;;;;;;;;;5053729;28;20321;-63
2022/09/15 15:16:27;;;;;;;4.35;2.10;;;;;;;;;;5053746;28;20033;-65
2022/09/15 15:18:55;;;;;;;5.43;2.40;;;;;;;;;;5053103;28;20377;-64